< < Back
Terminal Aerodrome Forecast


Current Version              Previous Versions:   1  2  3  4  5  6  7  8  9  

Terminal Aerodrome Forecast

358
FTUS42 KILM 251700
TAFFLO
TAF
KFLO 251720Z 2518/2618 32005KT P6SM SKC
     FM260000 VRB03KT P6SM SCT080
     FM260700 31005KT P6SM SCT060
     FM261500 33009KT P6SM SKC=

Latest METAR

509
SAUS70 KWBC 260500 RRE
MTRFLO
METAR KFLO 260453Z AUTO 26006KT 10SM CLR 13/06 A2991 RMK AO2 SLP127
T01280061 402390067


USA.gov is the U.S. government's official web portal to all federal, state and local government web resources and services.